createdAt,value
2018-05-11T00:01:20.406Z,16.90
2018-05-11T00:03:46.912Z,16.95
2018-05-11T00:06:13.391Z,17.04
2018-05-11T00:08:39.871Z,17.12
2018-05-11T00:11:06.313Z,17.16
2018-05-11T00:13:32.805Z,17.17
2018-05-11T00:15:59.301Z,17.22
2018-05-11T00:18:25.726Z,17.22
2018-05-11T00:20:52.226Z,17.15
2018-05-11T00:23:18.757Z,17.05
2018-05-11T00:25:45.157Z,17.06
2018-05-11T00:28:11.587Z,17.04
2018-05-11T00:30:37.965Z,16.99
2018-05-11T00:33:04.412Z,16.95
2018-05-11T00:35:30.961Z,16.87
2018-05-11T00:37:57.370Z,16.84
2018-05-11T00:40:23.817Z,16.72
2018-05-11T00:42:50.256Z,16.67
2018-05-11T00:45:16.860Z,16.58
2018-05-11T00:47:43.265Z,16.35
2018-05-11T00:50:09.716Z,16.48
2018-05-11T00:52:36.153Z,16.49
2018-05-11T00:55:14.687Z,16.33
2018-05-11T00:57:41.134Z,16.35
2018-05-11T01:00:08.447Z,16.32
2018-05-11T01:02:34.939Z,16.35
2018-05-11T01:05:01.410Z,16.43
2018-05-11T01:07:29.265Z,16.38
2018-05-11T01:09:55.692Z,16.51
2018-05-11T01:12:22.187Z,16.40
2018-05-11T01:14:48.640Z,16.34
2018-05-11T01:17:15.088Z,16.28
2018-05-11T01:19:41.598Z,16.31
2018-05-11T01:22:08.131Z,16.29
2018-05-11T01:24:34.596Z,16.24
2018-05-11T01:27:01.021Z,16.37
2018-05-11T01:29:27.361Z,16.46
2018-05-11T01:31:53.882Z,16.48
2018-05-11T01:34:20.307Z,16.45
2018-05-11T01:36:46.687Z,16.49
2018-05-11T01:39:13.050Z,16.55
2018-05-11T01:41:39.479Z,16.35
2018-05-11T01:44:05.907Z,16.35
2018-05-11T01:46:32.433Z,16.39
2018-05-11T01:48:59.000Z,16.40
2018-05-11T01:51:25.426Z,16.26
2018-05-11T01:53:51.954Z,16.34
2018-05-11T01:56:18.381Z,16.25
2018-05-11T01:58:44.887Z,16.31
2018-05-11T02:01:11.278Z,16.28
2018-05-11T02:03:38.545Z,16.32
2018-05-11T02:06:05.007Z,16.44
2018-05-11T02:08:31.392Z,16.51
2018-05-11T02:10:57.824Z,16.51
2018-05-11T02:13:24.254Z,16.48
2018-05-11T02:15:50.674Z,16.47
2018-05-11T02:18:17.126Z,16.48
2018-05-11T02:20:43.559Z,16.48
2018-05-11T02:23:09.994Z,16.47
2018-05-11T02:25:36.465Z,16.47
2018-05-11T02:28:02.922Z,16.50
2018-05-11T02:30:29.341Z,16.42
2018-05-11T02:32:55.867Z,16.37
2018-05-11T02:35:22.350Z,16.42
2018-05-11T02:37:48.776Z,16.34
2018-05-11T02:40:15.184Z,16.38
2018-05-11T02:42:41.667Z,16.27
2018-05-11T02:45:08.242Z,16.30
2018-05-11T02:47:34.972Z,16.29
2018-05-11T02:50:01.405Z,16.30
2018-05-11T02:52:28.637Z,16.36
2018-05-11T02:54:55.108Z,16.33
2018-05-11T02:57:21.677Z,16.40
2018-05-11T02:59:48.074Z,16.39
2018-05-11T03:02:14.576Z,16.37
2018-05-11T03:04:41.463Z,16.36
2018-05-11T03:07:08.053Z,16.40
2018-05-11T03:09:34.579Z,16.27
2018-05-11T03:12:01.029Z,16.24
2018-05-11T03:14:27.640Z,16.17
2018-05-11T03:16:54.123Z,16.14
2018-05-11T03:19:20.517Z,16.04
2018-05-11T03:21:46.890Z,16.10
2018-05-11T03:24:14.180Z,16.10
2018-05-11T03:26:40.761Z,16.08
2018-05-11T03:29:07.161Z,16.06
2018-05-11T03:31:33.677Z,16.15
2018-05-11T03:34:00.067Z,16.17
2018-05-11T03:36:26.578Z,16.19
2018-05-11T03:38:53.006Z,16.09
2018-05-11T03:41:19.383Z,16.09
2018-05-11T03:43:45.898Z,16.12
2018-05-11T03:46:12.285Z,16.26
2018-05-11T03:48:38.846Z,16.32
2018-05-11T03:51:05.365Z,16.35
2018-05-11T03:53:31.748Z,16.35
2018-05-11T03:55:58.200Z,16.39
2018-05-11T03:58:24.700Z,16.35
2018-05-11T04:00:51.124Z,16.30
2018-05-11T04:03:29.858Z,16.17
2018-05-11T04:19:35.793Z,16.35
2018-05-11T04:22:02.266Z,16.14
2018-05-11T04:24:28.755Z,16.27
2018-05-11T04:26:55.284Z,16.22
2018-05-11T04:29:21.661Z,16.28
2018-05-11T04:31:48.102Z,16.23
2018-05-11T04:34:14.461Z,16.32
2018-05-11T04:36:40.899Z,16.33
2018-05-11T04:39:07.566Z,16.22
2018-05-11T04:41:34.053Z,16.20
2018-05-11T04:44:00.515Z,16.13
2018-05-11T04:46:26.998Z,16.09
2018-05-11T04:48:53.446Z,16.03
2018-05-11T04:51:19.911Z,16.09
2018-05-11T04:53:47.232Z,16.07
2018-05-11T04:56:13.674Z,16.27
2018-05-11T04:58:40.187Z,16.24
2018-05-11T05:01:06.638Z,16.21
2018-05-11T05:03:33.149Z,16.17
2018-05-11T05:05:59.573Z,16.30
2018-05-11T05:08:26.071Z,16.43
2018-05-11T05:10:52.531Z,16.43
2018-05-11T05:13:18.941Z,16.24
2018-05-11T05:15:45.295Z,16.33
2018-05-11T05:18:11.777Z,16.43
2018-05-11T05:20:38.212Z,16.45
2018-05-11T05:23:04.694Z,16.53
2018-05-11T05:25:32.071Z,16.47
2018-05-11T05:27:58.543Z,16.60
2018-05-11T05:30:24.921Z,16.59
2018-05-11T05:32:51.297Z,16.68
2018-05-11T05:35:18.386Z,16.79
2018-05-11T05:37:44.790Z,16.76
2018-05-11T05:40:11.356Z,16.73
2018-05-11T05:42:37.837Z,16.73
2018-05-11T05:45:04.315Z,16.88
2018-05-11T05:47:30.788Z,16.85
2018-05-11T05:49:57.249Z,16.83
2018-05-11T05:52:23.793Z,16.81
2018-05-11T05:54:50.254Z,16.82
2018-05-11T05:57:16.809Z,16.80
2018-05-11T05:59:43.291Z,16.77
2018-05-11T06:02:09.814Z,16.79
2018-05-11T06:04:36.369Z,16.79
2018-05-11T06:07:02.925Z,16.83
2018-05-11T06:09:29.434Z,16.81
2018-05-11T06:11:55.902Z,16.82
2018-05-11T06:14:22.429Z,16.72
2018-05-11T06:16:48.844Z,16.86
2018-05-11T06:19:15.350Z,16.96
2018-05-11T06:21:41.762Z,16.85
2018-05-11T06:24:08.215Z,16.84
2018-05-11T06:26:34.857Z,16.91
2018-05-11T06:29:01.315Z,16.94
2018-05-11T06:31:27.838Z,17.05
2018-05-11T06:33:54.282Z,17.07
2018-05-11T06:36:20.828Z,17.08
2018-05-11T06:38:47.313Z,17.08
2018-05-11T06:41:13.757Z,17.13
2018-05-11T06:43:40.136Z,17.16
2018-05-11T06:46:06.671Z,17.23
2018-05-11T06:48:33.153Z,17.29
2018-05-11T06:50:59.600Z,17.22
2018-05-11T06:53:25.987Z,17.26
2018-05-11T06:55:52.479Z,17.26
2018-05-11T06:58:18.930Z,17.27
2018-05-11T07:00:45.577Z,17.38
2018-05-11T07:03:11.959Z,17.55
2018-05-11T07:05:38.382Z,17.59
2018-05-11T07:08:04.898Z,17.66
2018-05-11T07:10:31.320Z,17.57
2018-05-11T07:12:57.727Z,17.50
2018-05-11T07:15:24.146Z,17.42
2018-05-11T07:17:50.643Z,17.41
2018-05-11T07:20:17.040Z,17.53
2018-05-11T07:22:43.439Z,17.60
2018-05-11T07:25:09.976Z,17.50
2018-05-11T07:27:36.378Z,17.53
2018-05-11T07:30:03.016Z,17.44
2018-05-11T07:32:29.440Z,17.50
2018-05-11T07:34:56.831Z,17.58
2018-05-11T07:37:23.273Z,17.47
2018-05-11T07:39:49.647Z,17.56
2018-05-11T07:42:16.016Z,17.60
2018-05-11T07:44:42.567Z,17.67
2018-05-11T07:47:08.982Z,17.75
2018-05-11T07:49:35.922Z,17.75
2018-05-11T07:52:02.404Z,17.82
2018-05-11T07:54:28.760Z,17.70
2018-05-11T07:56:55.436Z,17.68
2018-05-11T07:59:21.862Z,17.85
2018-05-11T08:01:48.264Z,17.99
2018-05-11T08:04:14.683Z,18.00
2018-05-11T08:06:41.210Z,17.97
2018-05-11T08:09:07.646Z,18.05
2018-05-11T08:11:34.189Z,18.20
2018-05-11T08:14:00.690Z,18.31
2018-05-11T08:16:27.176Z,18.37
2018-05-11T08:18:54.464Z,18.45
2018-05-11T08:21:21.134Z,18.50
2018-05-11T08:23:47.521Z,18.52
2018-05-11T08:26:13.904Z,18.57
2018-05-11T08:28:40.392Z,18.57
2018-05-11T08:31:06.751Z,18.64
2018-05-11T08:33:33.362Z,18.65
2018-05-11T08:35:59.909Z,18.64
2018-05-11T08:38:26.273Z,18.87
2018-05-11T08:40:52.703Z,18.94
2018-05-11T08:43:19.159Z,19.02
2018-05-11T08:45:45.590Z,19.13
2018-05-11T08:48:11.958Z,19.14
2018-05-11T08:50:38.369Z,19.26
2018-05-11T08:53:04.950Z,19.47
2018-05-11T08:55:31.488Z,19.59
2018-05-11T08:57:57.869Z,19.62
2018-05-11T09:00:24.333Z,19.68
2018-05-11T09:02:50.863Z,19.61
2018-05-11T09:05:17.294Z,19.41
2018-05-11T09:07:43.938Z,19.48
2018-05-11T09:10:10.338Z,19.57
2018-05-11T09:12:36.780Z,19.78
2018-05-11T09:15:03.376Z,20.00
2018-05-11T09:17:29.855Z,19.95
2018-05-11T09:19:56.352Z,19.81
2018-05-11T09:22:22.826Z,19.89
2018-05-11T09:24:49.409Z,19.68
2018-05-11T09:27:15.901Z,19.54
2018-05-11T09:29:42.461Z,19.48
2018-05-11T09:32:08.971Z,19.59
2018-05-11T09:34:35.367Z,19.39
2018-05-11T09:37:01.835Z,19.41
2018-05-11T09:39:28.310Z,19.46
2018-05-11T09:41:54.756Z,19.47
2018-05-11T09:44:21.176Z,19.66
2018-05-11T09:46:47.626Z,19.99
2018-05-11T09:49:14.067Z,20.22
2018-05-11T09:51:40.582Z,20.26
2018-05-11T09:54:07.099Z,20.07
2018-05-11T09:56:33.533Z,20.18
2018-05-11T09:58:59.951Z,20.21
2018-05-11T10:01:26.346Z,20.20
2018-05-11T10:03:52.785Z,20.19
2018-05-11T10:06:19.384Z,20.28
2018-05-11T10:08:46.396Z,20.41
2018-05-11T10:11:12.844Z,20.59
2018-05-11T10:13:39.472Z,20.77
2018-05-11T10:16:05.853Z,20.81
2018-05-11T10:18:32.242Z,20.93
2018-05-11T10:20:58.680Z,20.73
2018-05-11T10:23:25.176Z,20.73
2018-05-11T10:25:51.549Z,20.76
2018-05-11T10:28:18.588Z,20.79
2018-05-11T10:30:44.992Z,20.98
2018-05-11T10:33:11.402Z,21.13
2018-05-11T10:35:37.855Z,21.22
2018-05-11T10:38:04.307Z,20.96
2018-05-11T10:40:30.839Z,20.95
2018-05-11T10:42:57.230Z,20.82
2018-05-11T10:45:24.179Z,20.82
2018-05-11T10:47:50.997Z,20.65
2018-05-11T10:50:17.513Z,20.85
2018-05-11T10:52:43.906Z,20.92
2018-05-11T10:55:10.360Z,21.09
2018-05-11T10:57:36.818Z,21.30
2018-05-11T11:00:03.273Z,21.24
2018-05-11T11:02:29.911Z,20.99
2018-05-11T11:04:56.396Z,20.92
2018-05-11T11:07:22.841Z,20.91
2018-05-11T11:09:49.317Z,21.08
2018-05-11T11:12:15.695Z,21.15
2018-05-11T11:14:42.054Z,21.24
2018-05-11T11:17:08.526Z,21.39
2018-05-11T11:19:34.983Z,21.42
2018-05-11T11:22:01.582Z,21.42
2018-05-11T11:24:28.111Z,21.51
2018-05-11T11:26:54.492Z,21.42
2018-05-11T11:29:21.082Z,21.56
2018-05-11T11:31:47.535Z,21.77
2018-05-11T11:34:13.964Z,21.82
2018-05-11T11:36:40.295Z,21.81
2018-05-11T11:39:06.754Z,21.88
2018-05-11T11:41:33.808Z,21.88
2018-05-11T11:44:00.200Z,21.88
2018-05-11T11:46:26.697Z,21.94
2018-05-11T11:48:53.146Z,21.85
2018-05-11T11:51:19.583Z,21.88
2018-05-11T11:53:46.086Z,21.66
2018-05-11T11:56:12.615Z,21.87
2018-05-11T11:58:39.315Z,21.95
2018-05-11T12:01:05.738Z,22.02
2018-05-11T12:03:32.179Z,21.98
2018-05-11T12:05:59.655Z,21.84
2018-05-11T12:08:27.932Z,21.83
2018-05-11T12:10:54.325Z,21.87
2018-05-11T12:13:20.718Z,21.77
2018-05-11T12:15:47.172Z,21.84
2018-05-11T12:18:13.582Z,21.85
2018-05-11T12:20:40.760Z,21.95
2018-05-11T12:23:07.138Z,21.96
2018-05-11T12:25:33.505Z,22.00
2018-05-11T12:27:59.895Z,22.14
2018-05-11T12:30:26.350Z,22.27
2018-05-11T12:32:52.853Z,22.38
2018-05-11T12:35:19.323Z,22.34
2018-05-11T12:37:45.781Z,22.26
2018-05-11T12:40:12.207Z,22.33
2018-05-11T12:42:38.614Z,22.28
2018-05-11T12:45:05.074Z,22.22
2018-05-11T12:47:31.538Z,22.19
2018-05-11T12:49:57.996Z,22.19
2018-05-11T12:52:24.431Z,22.14
2018-05-11T12:54:51.778Z,22.17
2018-05-11T12:57:20.776Z,22.15
2018-05-11T12:59:49.537Z,22.33
2018-05-11T13:02:15.961Z,22.18
2018-05-11T13:04:42.447Z,22.13
2018-05-11T13:07:09.003Z,22.19
2018-05-11T13:09:35.506Z,22.21
2018-05-11T13:12:01.909Z,22.18
2018-05-11T13:14:28.347Z,22.16
2018-05-11T13:16:54.774Z,22.17
2018-05-11T13:19:21.513Z,21.83
2018-05-11T13:21:47.867Z,21.41
2018-05-11T13:24:14.256Z,21.41
2018-05-11T13:26:40.757Z,21.02
2018-05-11T13:29:07.282Z,20.54
2018-05-11T13:31:33.758Z,20.12
2018-05-11T13:34:00.369Z,19.31
2018-05-11T13:36:27.188Z,19.54
2018-05-11T13:38:53.627Z,19.41
2018-05-11T13:41:20.107Z,19.23
2018-05-11T13:43:46.453Z,18.65
2018-05-11T13:46:12.977Z,18.68
2018-05-11T13:48:39.429Z,18.44
2018-05-11T13:51:05.849Z,18.36
2018-05-11T13:53:32.355Z,18.46
2018-05-11T13:55:59.798Z,18.42
2018-05-11T13:58:26.153Z,18.46
2018-05-11T14:00:52.556Z,18.44
2018-05-11T14:03:19.044Z,18.35
2018-05-11T14:05:45.591Z,18.34
2018-05-11T14:08:12.658Z,18.41
2018-05-11T14:10:39.112Z,18.26
2018-05-11T14:13:05.562Z,18.38
2018-05-11T14:15:32.113Z,18.54
2018-05-11T14:17:58.706Z,18.40
2018-05-11T14:20:25.260Z,18.56
2018-05-11T14:22:51.750Z,18.54
2018-05-11T14:25:18.298Z,18.58
2018-05-11T14:27:44.755Z,18.56
2018-05-11T14:30:11.275Z,18.67
2018-05-11T14:32:37.771Z,18.67
2018-05-11T14:35:04.249Z,18.67
2018-05-11T14:37:30.809Z,18.61
2018-05-11T14:39:57.337Z,18.58
2018-05-11T14:42:23.915Z,18.66
2018-05-11T14:44:50.310Z,18.58
2018-05-11T14:47:17.776Z,18.52
2018-05-11T14:49:44.280Z,18.60
2018-05-11T14:52:10.723Z,18.61
2018-05-11T14:54:37.102Z,18.68
2018-05-11T14:57:03.511Z,18.49
2018-05-11T14:59:29.991Z,18.63
2018-05-11T15:01:56.398Z,18.59
2018-05-11T15:04:22.778Z,18.64
2018-05-11T15:06:49.295Z,18.49
2018-05-11T15:09:15.766Z,18.49
2018-05-11T15:11:42.285Z,18.46
2018-05-11T15:14:08.763Z,18.52
2018-05-11T15:16:35.236Z,18.61
2018-05-11T15:19:02.754Z,18.68
2018-05-11T15:21:29.258Z,18.62
2018-05-11T15:23:55.783Z,18.70
2018-05-11T15:26:22.335Z,18.76
2018-05-11T15:28:49.148Z,18.73
2018-05-11T15:31:15.617Z,18.73
2018-05-11T15:33:42.043Z,18.81
2018-05-11T15:36:08.493Z,18.82
2018-05-11T15:38:35.053Z,18.88
2018-05-11T15:41:01.515Z,18.91
2018-05-11T15:43:27.890Z,18.92
2018-05-11T15:45:54.348Z,19.03
2018-05-11T15:48:20.823Z,19.13
2018-05-11T15:50:47.312Z,19.12
2018-05-11T15:53:13.762Z,19.12
2018-05-11T15:55:40.262Z,19.16
2018-05-11T15:58:06.677Z,19.18
2018-05-11T16:00:33.050Z,19.23
2018-05-11T16:02:59.416Z,19.21
2018-05-11T16:05:25.907Z,19.11
2018-05-11T16:07:52.428Z,19.15
2018-05-11T16:10:18.942Z,19.05
2018-05-11T16:12:45.427Z,19.05
2018-05-11T16:15:11.891Z,19.06
2018-05-11T16:17:38.311Z,19.00
2018-05-11T16:20:04.720Z,18.98
2018-05-11T16:22:31.277Z,18.92
2018-05-11T16:24:57.788Z,18.95
2018-05-11T16:27:24.283Z,18.91
2018-05-11T16:29:50.715Z,18.83
2018-05-11T16:32:17.257Z,18.81
2018-05-11T16:34:43.700Z,18.90
2018-05-11T16:37:10.098Z,18.81
2018-05-11T16:39:36.659Z,18.76
2018-05-11T16:42:03.101Z,18.74
2018-05-11T16:44:29.533Z,18.67
2018-05-11T16:46:56.020Z,18.65
2018-05-11T16:49:22.504Z,18.63
2018-05-11T16:51:49.026Z,18.63
2018-05-11T16:54:15.443Z,18.67
2018-05-11T16:56:41.945Z,18.62
2018-05-11T16:59:08.337Z,18.52
2018-05-11T17:01:34.769Z,18.47
2018-05-11T17:04:01.237Z,18.49
2018-05-11T17:06:27.638Z,18.51
2018-05-11T17:08:54.069Z,18.49
2018-05-11T17:11:20.641Z,18.48
2018-05-11T17:13:47.150Z,18.50
2018-05-11T17:16:13.690Z,18.57
2018-05-11T17:18:40.235Z,18.61
2018-05-11T17:21:06.665Z,18.61
2018-05-11T17:23:33.154Z,18.66
2018-05-11T17:25:59.662Z,18.70
2018-05-11T17:28:26.159Z,18.71
2018-05-11T17:30:52.693Z,18.71
2018-05-11T17:33:19.652Z,18.72
2018-05-11T17:35:46.041Z,18.69
2018-05-11T17:38:12.544Z,18.80
2018-05-11T17:40:39.016Z,18.76
2018-05-11T17:43:05.558Z,18.80
2018-05-11T17:45:31.943Z,18.79
2018-05-11T17:47:58.491Z,18.76
2018-05-11T17:50:24.945Z,18.67
2018-05-11T17:52:51.406Z,18.56
2018-05-11T17:55:17.800Z,18.47
2018-05-11T17:57:44.285Z,18.27
2018-05-11T18:00:10.667Z,18.25
2018-05-11T18:02:37.114Z,18.12
2018-05-11T18:05:03.600Z,17.96
2018-05-11T18:07:30.007Z,18.01
2018-05-11T18:09:56.602Z,17.92
2018-05-11T18:12:23.103Z,17.95
2018-05-11T18:14:49.404Z,17.92
2018-05-11T18:17:15.914Z,17.93
2018-05-11T18:19:42.535Z,17.87
2018-05-11T18:22:08.971Z,17.86
2018-05-11T18:24:35.367Z,17.84
2018-05-11T18:27:01.877Z,17.70
2018-05-11T18:29:28.420Z,17.78
2018-05-11T18:31:54.904Z,17.74
2018-05-11T18:34:22.303Z,17.68
2018-05-11T18:36:48.755Z,17.74
2018-05-11T18:39:15.129Z,17.80
2018-05-11T18:41:41.557Z,17.72
2018-05-11T18:44:08.079Z,17.79
2018-05-11T18:46:34.614Z,17.65
2018-05-11T18:49:01.089Z,17.61
2018-05-11T18:51:27.636Z,17.46
2018-05-11T18:53:54.525Z,17.31
2018-05-11T18:56:20.665Z,17.30
2018-05-11T18:58:47.262Z,17.17
2018-05-11T19:01:13.738Z,17.00
2018-05-11T19:03:40.220Z,17.03
2018-05-11T19:06:06.703Z,16.86
2018-05-11T19:08:34.058Z,16.89
2018-05-11T19:11:00.590Z,16.92
2018-05-11T19:13:26.995Z,16.67
2018-05-11T19:15:53.478Z,16.65
2018-05-11T19:18:19.941Z,16.63
2018-05-11T19:20:46.326Z,16.49
2018-05-11T19:23:12.873Z,16.34
2018-05-11T19:25:39.311Z,16.33
2018-05-11T19:28:05.829Z,16.36
2018-05-11T19:30:32.290Z,16.22
2018-05-11T19:32:58.902Z,16.23
2018-05-11T19:35:25.603Z,16.29
2018-05-11T19:37:52.065Z,16.43
2018-05-11T19:40:18.560Z,16.47
2018-05-11T19:42:45.084Z,16.43
2018-05-11T19:45:11.631Z,16.55
2018-05-11T19:47:38.127Z,16.52
2018-05-11T19:50:04.509Z,16.43
2018-05-11T19:52:31.036Z,16.41
2018-05-11T19:54:57.560Z,16.55
2018-05-11T19:57:24.081Z,16.44
2018-05-11T19:59:50.505Z,16.47
2018-05-11T20:02:17.110Z,16.55
2018-05-11T20:04:43.774Z,16.54
2018-05-11T20:07:11.135Z,16.64
2018-05-11T20:09:37.653Z,16.62
2018-05-11T20:12:04.110Z,16.68
2018-05-11T20:14:30.522Z,16.64
2018-05-11T20:16:57.027Z,16.59
2018-05-11T20:19:23.498Z,16.50
2018-05-11T20:21:49.987Z,16.34
2018-05-11T20:24:16.559Z,16.42
2018-05-11T20:26:43.144Z,16.40
2018-05-11T20:29:09.646Z,16.45
2018-05-11T20:31:36.134Z,16.42
2018-05-11T20:34:02.583Z,16.44
2018-05-11T20:36:29.157Z,16.37
2018-05-11T20:38:55.664Z,16.37
2018-05-11T20:41:22.247Z,16.11
2018-05-11T20:43:48.764Z,16.16
2018-05-11T20:46:15.220Z,16.23
2018-05-11T20:48:41.731Z,15.91
2018-05-11T20:51:08.268Z,16.00
2018-05-11T20:53:34.786Z,16.12
2018-05-11T20:56:01.246Z,15.99
2018-05-11T20:58:27.728Z,16.02
2018-05-11T21:00:54.217Z,15.94
2018-05-11T21:03:20.665Z,16.08
2018-05-11T21:05:47.076Z,16.08
2018-05-11T21:08:13.567Z,16.07
2018-05-11T21:10:40.205Z,16.02
2018-05-11T21:13:06.644Z,16.04
2018-05-11T21:15:33.119Z,16.11
2018-05-11T21:17:59.551Z,16.12
2018-05-11T21:20:25.991Z,16.12
2018-05-11T21:22:52.440Z,16.12
2018-05-11T21:25:18.857Z,16.08
2018-05-11T21:27:46.159Z,16.07
2018-05-11T21:30:12.645Z,16.03
2018-05-11T21:32:39.135Z,15.96
2018-05-11T21:35:05.604Z,15.87
2018-05-11T21:37:31.950Z,15.78
2018-05-11T21:39:58.395Z,15.73
2018-05-11T21:42:24.897Z,15.72
2018-05-11T21:44:51.388Z,15.59
2018-05-11T21:47:17.802Z,15.66
2018-05-11T21:49:44.211Z,15.69
2018-05-11T21:52:10.716Z,15.73
2018-05-11T21:54:37.098Z,15.68
2018-05-11T21:57:03.488Z,15.74
2018-05-11T21:59:29.942Z,15.52
2018-05-11T22:01:56.459Z,15.58
2018-05-11T22:04:22.934Z,15.54
2018-05-11T22:06:49.526Z,15.62
2018-05-11T22:09:15.978Z,15.65
2018-05-11T22:11:42.549Z,15.57
2018-05-11T22:14:09.719Z,15.63
2018-05-11T22:16:36.391Z,15.53
2018-05-11T22:19:02.791Z,15.49
2018-05-11T22:21:29.351Z,15.42
2018-05-11T22:23:55.764Z,15.36
2018-05-11T22:26:22.317Z,15.36
2018-05-11T22:28:48.777Z,15.38
2018-05-11T22:31:15.194Z,15.37
2018-05-11T22:33:41.626Z,15.40
2018-05-11T22:36:08.171Z,15.39
2018-05-11T22:38:34.539Z,15.25
2018-05-11T22:41:00.977Z,15.08
2018-05-11T22:43:27.466Z,15.01
2018-05-11T22:45:53.870Z,14.98
2018-05-11T22:48:20.390Z,14.91
2018-05-11T22:50:46.848Z,15.04
2018-05-11T22:53:13.242Z,15.07
2018-05-11T22:55:39.593Z,15.06
2018-05-11T22:58:05.957Z,14.95
2018-05-11T23:00:39.647Z,14.97
2018-05-11T23:03:05.937Z,14.91
2018-05-11T23:05:33.084Z,14.86
2018-05-11T23:07:59.627Z,14.91
2018-05-11T23:10:26.066Z,15.07
2018-05-11T23:12:52.507Z,15.10
2018-05-11T23:15:18.911Z,15.08
2018-05-11T23:17:45.381Z,15.13
2018-05-11T23:20:11.860Z,15.02
2018-05-11T23:22:38.378Z,15.04
2018-05-11T23:25:04.874Z,15.01
2018-05-11T23:27:38.397Z,14.97
2018-05-11T23:30:04.931Z,14.94
2018-05-11T23:32:31.412Z,15.02
2018-05-11T23:34:57.883Z,15.03
2018-05-11T23:37:24.262Z,15.04
2018-05-11T23:39:50.681Z,15.01
2018-05-11T23:42:17.121Z,15.03
2018-05-11T23:44:43.533Z,14.99
2018-05-11T23:47:10.024Z,14.98
2018-05-11T23:49:36.509Z,14.98
2018-05-11T23:52:02.961Z,14.97
2018-05-11T23:54:29.367Z,14.98
2018-05-11T23:56:55.768Z,15.05
2018-05-11T23:59:22.271Z,15.06
